Sperry, Missouri
Current Conditions -  °F | °C
As of 1:55 AM on Thursday 18 Dec 2014 (Local Time) from KIRK Reporting Station
Overcast Overcast  
Wind Chill: 19°   Ceiling: 8500
Heat Index: 26°   Visibility: 10mi
Dew Point: 21°   Wind: 6mph
Humidity: 81%   Direction: 80°E
Pressure: 30.27"   Gusts: NA
Location:  40.149°N, 92.6667°W
Report Text: KIRK 180755Z AUTO 08005KT 10SM OVC085 M03/M06 A3027 RMK AO2 SLP265 T10331061
Loading
Personal Weather Stations






























Interactive Weather Map New forecast layout! Learn more

10-Day Weather Forecast

Advertisements
Track Severe Weather on mobile